createdAt,value
2023-03-07T00:01:24.599Z,9.65
2023-03-07T00:03:52.125Z,10.02
2023-03-07T00:06:19.793Z,10.13
2023-03-07T00:08:49.816Z,11.70
2023-03-07T00:11:17.320Z,10.75
2023-03-07T00:13:46.477Z,10.68
2023-03-07T00:16:15.199Z,11.55
2023-03-07T00:18:43.777Z,10.07
2023-03-07T00:21:12.233Z,11.68
2023-03-07T00:23:41.013Z,12.80
2023-03-07T00:26:10.133Z,12.70
2023-03-07T00:28:37.595Z,13.68
2023-03-07T00:31:08.545Z,12.70
2023-03-07T00:33:36.467Z,17.48
2023-03-07T00:36:05.046Z,13.88
2023-03-07T00:38:32.940Z,12.98
2023-03-07T00:41:01.211Z,14.90
2023-03-07T00:43:29.141Z,15.73
2023-03-07T00:45:57.109Z,17.60
2023-03-07T00:48:26.228Z,15.45
2023-03-07T00:50:54.068Z,13.88
2023-03-07T00:53:22.229Z,18.65
2023-03-07T00:55:57.094Z,19.77
2023-03-07T00:58:24.830Z,17.30
2023-03-07T01:00:52.481Z,16.70
2023-03-07T01:03:20.360Z,20.83
2023-03-07T01:05:49.595Z,18.70
2023-03-07T01:08:17.274Z,20.20
2023-03-07T01:10:44.962Z,22.20
2023-03-07T01:13:13.083Z,23.40
2023-03-07T01:15:40.667Z,22.73
2023-03-07T01:18:09.029Z,22.52
2023-03-07T01:20:37.054Z,22.45
2023-03-07T01:23:06.218Z,21.80
2023-03-07T01:25:37.726Z,21.42
2023-03-07T01:28:05.210Z,19.60
2023-03-07T01:30:32.754Z,20.75
2023-03-07T01:33:00.772Z,21.90
2023-03-07T01:35:28.677Z,23.33
2023-03-07T01:37:56.491Z,22.02
2023-03-07T01:40:25.407Z,24.33
2023-03-07T01:42:54.105Z,31.20
2023-03-07T01:45:40.444Z,27.45
2023-03-07T01:48:07.959Z,21.45
2023-03-07T01:50:35.425Z,24.70
2023-03-07T01:53:02.982Z,26.10
2023-03-07T01:55:32.656Z,26.48
2023-03-07T01:58:01.237Z,26.90
2023-03-07T02:00:29.910Z,25.88
2023-03-07T02:03:02.593Z,27.73
2023-03-07T02:05:32.739Z,26.55
2023-03-07T02:08:02.078Z,27.52
2023-03-07T02:10:29.707Z,26.23
2023-03-07T02:12:58.582Z,23.13
2023-03-07T02:15:26.074Z,29.25
2023-03-07T02:17:53.720Z,29.23
2023-03-07T02:20:28.639Z,26.75
2023-03-07T02:22:56.737Z,31.30
2023-03-07T02:25:28.089Z,27.50
2023-03-07T02:27:58.236Z,29.60
2023-03-07T02:30:26.639Z,28.35
2023-03-07T02:32:54.207Z,28.13
2023-03-07T02:35:22.964Z,28.98
2023-03-07T02:37:52.163Z,30.10
2023-03-07T02:40:21.114Z,26.77
2023-03-07T02:42:48.689Z,30.75
2023-03-07T02:45:18.899Z,30.52
2023-03-07T02:47:46.704Z,31.80
2023-03-07T02:50:14.608Z,32.10
2023-03-07T02:52:42.143Z,35.83
2023-03-07T02:55:10.008Z,31.27
2023-03-07T02:57:37.562Z,34.85
2023-03-07T03:00:06.865Z,33.90
2023-03-07T03:02:35.870Z,32.55
2023-03-07T03:05:03.435Z,33.90
2023-03-07T03:07:30.946Z,35.92
2023-03-07T03:09:58.896Z,34.38
2023-03-07T03:12:26.487Z,37.92
2023-03-07T03:14:53.956Z,31.85
2023-03-07T03:17:21.458Z,32.70
2023-03-07T03:19:50.384Z,31.63
2023-03-07T03:22:17.932Z,34.65
2023-03-07T03:24:45.419Z,36.65
2023-03-07T03:27:12.878Z,37.45
2023-03-07T03:29:40.439Z,35.05
2023-03-07T03:32:08.444Z,38.72
2023-03-07T03:34:36.061Z,30.13
2023-03-07T03:37:04.942Z,34.88
2023-03-07T03:39:32.469Z,33.80
2023-03-07T03:41:59.958Z,33.00
2023-03-07T03:44:27.448Z,33.60
2023-03-07T03:46:55.688Z,35.35
2023-03-07T03:49:23.341Z,37.28
2023-03-07T03:51:50.837Z,30.95
2023-03-07T03:54:19.750Z,31.55
2023-03-07T03:56:47.212Z,34.15
2023-03-07T03:59:14.758Z,34.33
2023-03-07T04:01:42.312Z,34.35
2023-03-07T04:04:09.894Z,27.92
2023-03-07T04:06:37.384Z,35.58
2023-03-07T04:09:05.461Z,35.83
2023-03-07T04:11:34.317Z,35.63
2023-03-07T04:14:01.840Z,35.13
2023-03-07T04:16:29.603Z,33.03
2023-03-07T04:18:57.505Z,32.95
2023-03-07T04:21:24.999Z,30.08
2023-03-07T04:23:55.548Z,34.20
2023-03-07T04:26:23.131Z,28.92
2023-03-07T04:28:51.956Z,29.70
2023-03-07T04:31:20.403Z,30.63
2023-03-07T04:33:48.598Z,29.38
2023-03-07T04:36:17.244Z,29.38
2023-03-07T04:38:45.099Z,29.08
2023-03-07T04:41:13.672Z,28.50
2023-03-07T04:43:41.198Z,29.65
2023-03-07T04:46:11.208Z,30.33
2023-03-07T04:48:38.761Z,24.77
2023-03-07T04:51:06.524Z,25.92
2023-03-07T04:53:34.093Z,21.60
2023-03-07T04:56:02.189Z,25.85
2023-03-07T04:58:30.353Z,25.90
2023-03-07T05:00:57.923Z,27.83
2023-03-07T05:03:27.357Z,22.48
2023-03-07T05:05:54.861Z,29.27
2023-03-07T05:08:22.768Z,21.00
2023-03-07T05:10:50.281Z,27.17
2023-03-07T05:13:17.781Z,23.42
2023-03-07T05:15:45.306Z,27.33
2023-03-07T05:18:12.801Z,25.00
2023-03-07T05:20:43.158Z,30.42
2023-03-07T05:23:10.637Z,23.77
2023-03-07T05:25:38.269Z,30.75
2023-03-07T05:28:05.850Z,23.77
2023-03-07T05:30:33.362Z,35.95
2023-03-07T05:33:00.872Z,32.63
2023-03-07T05:35:28.372Z,27.85
2023-03-07T05:37:57.242Z,27.50
2023-03-07T05:40:24.766Z,30.17
2023-03-07T05:42:52.387Z,30.67
2023-03-07T05:45:21.065Z,29.42
2023-03-07T05:47:48.656Z,25.83
2023-03-07T05:50:16.240Z,30.88
2023-03-07T05:52:43.733Z,29.38
2023-03-07T05:55:12.781Z,28.50
2023-03-07T05:57:40.440Z,29.27
2023-03-07T06:00:09.321Z,27.95
2023-03-07T06:02:36.802Z,28.50
2023-03-07T06:05:04.325Z,23.60
2023-03-07T06:07:31.787Z,25.65
2023-03-07T06:09:59.272Z,21.23
2023-03-07T06:12:28.166Z,28.77
2023-03-07T06:14:55.686Z,27.92
2023-03-07T06:17:23.196Z,37.00
2023-03-07T06:19:50.698Z,35.13
2023-03-07T06:22:18.211Z,29.77
2023-03-07T06:24:45.823Z,18.83
2023-03-07T06:27:13.326Z,23.27
2023-03-07T06:29:42.218Z,22.70
2023-03-07T06:32:09.698Z,25.40
2023-03-07T06:34:37.933Z,31.40
2023-03-07T06:37:05.503Z,20.45
2023-03-07T06:39:33.032Z,30.77
2023-03-07T06:42:00.507Z,28.13
2023-03-07T06:44:27.993Z,29.45
2023-03-07T06:46:56.841Z,26.98
2023-03-07T06:49:24.400Z,26.70
2023-03-07T06:51:52.017Z,31.15
2023-03-07T06:54:19.519Z,22.15
2023-03-07T06:56:47.098Z,26.83
2023-03-07T06:59:14.750Z,30.73
2023-03-07T07:01:42.367Z,30.95
2023-03-07T07:04:11.585Z,21.58
2023-03-07T07:06:39.143Z,29.67
2023-03-07T07:09:06.875Z,28.85
2023-03-07T07:11:34.848Z,28.80
2023-03-07T07:14:02.363Z,25.88
2023-03-07T07:16:33.520Z,22.60
2023-03-07T07:19:01.045Z,17.50
2023-03-07T07:21:29.918Z,27.13
2023-03-07T07:23:57.448Z,24.35
2023-03-07T07:26:26.423Z,27.67
2023-03-07T07:28:53.937Z,26.00
2023-03-07T07:31:21.426Z,26.27
2023-03-07T07:33:48.977Z,26.50
2023-03-07T07:36:16.508Z,25.80
2023-03-07T07:38:45.388Z,26.67
2023-03-07T07:41:12.908Z,24.00
2023-03-07T07:43:41.641Z,28.08
2023-03-07T07:46:09.191Z,23.65
2023-03-07T07:48:36.695Z,25.85
2023-03-07T07:51:04.544Z,22.70
2023-03-07T07:53:32.390Z,22.05
2023-03-07T07:56:01.278Z,22.08
2023-03-07T07:58:28.774Z,16.77
2023-03-07T08:00:56.270Z,22.48
2023-03-07T08:03:23.810Z,18.63
2023-03-07T08:05:51.856Z,20.60
2023-03-07T08:08:20.197Z,20.52
2023-03-07T08:10:47.779Z,23.58
2023-03-07T08:13:17.686Z,22.50
2023-03-07T08:15:45.243Z,21.73
2023-03-07T08:18:13.422Z,18.35
2023-03-07T08:20:41.227Z,21.13
2023-03-07T08:23:08.874Z,17.58
2023-03-07T08:25:36.680Z,18.33
2023-03-07T08:28:05.363Z,18.92
2023-03-07T08:30:35.005Z,21.35
2023-03-07T08:33:02.691Z,18.13
2023-03-07T08:35:30.227Z,19.95
2023-03-07T08:37:59.542Z,17.15
2023-03-07T08:40:27.426Z,18.38
2023-03-07T08:42:55.204Z,18.45
2023-03-07T08:45:23.044Z,14.88
2023-03-07T08:47:54.537Z,18.50
2023-03-07T08:52:49.353Z,13.90
2023-03-07T08:55:17.764Z,18.30
2023-03-07T08:57:47.366Z,15.73
2023-03-07T09:00:15.525Z,14.27
2023-03-07T09:02:43.125Z,12.45
2023-03-07T09:05:12.142Z,13.63
2023-03-07T09:07:39.887Z,12.85
2023-03-07T09:10:07.703Z,13.02
2023-03-07T09:12:36.010Z,12.80
2023-03-07T09:15:03.636Z,11.38
2023-03-07T09:17:31.308Z,12.32
2023-03-07T09:19:59.543Z,12.68
2023-03-07T09:22:29.109Z,11.40
2023-03-07T09:24:56.564Z,12.50
2023-03-07T09:27:24.044Z,14.57
2023-03-07T09:29:51.610Z,9.38
2023-03-07T09:32:19.137Z,10.77
2023-03-07T09:34:46.639Z,9.00
2023-03-07T09:37:14.173Z,9.85
2023-03-07T09:39:42.955Z,10.35
2023-03-07T09:42:18.683Z,10.55
2023-03-07T09:44:55.113Z,9.43
2023-03-07T09:47:31.709Z,8.95
2023-03-07T09:49:59.915Z,8.40
2023-03-07T09:52:28.729Z,8.75
2023-03-07T09:55:00.087Z,5.88
2023-03-07T09:57:29.084Z,11.55
2023-03-07T09:59:57.606Z,7.30
2023-03-07T10:02:28.477Z,10.13
2023-03-07T10:05:00.047Z,6.90
2023-03-07T10:07:28.030Z,8.02
2023-03-07T10:09:58.659Z,6.95
2023-03-07T10:12:41.011Z,8.35
2023-03-07T10:15:26.417Z,9.40
2023-03-07T10:18:16.150Z,6.72
2023-03-07T10:20:46.689Z,8.73
2023-03-07T10:23:32.476Z,7.88
2023-03-07T10:26:02.850Z,8.32
2023-03-07T10:28:31.859Z,7.25
2023-03-07T10:31:00.678Z,7.78
2023-03-07T10:33:30.416Z,7.00
2023-03-07T10:36:00.080Z,6.80
2023-03-07T10:38:30.175Z,5.50
2023-03-07T10:40:58.551Z,8.70
2023-03-07T10:43:28.340Z,6.65
2023-03-07T10:45:59.673Z,7.85
2023-03-07T10:50:59.666Z,9.25
2023-03-07T10:53:28.295Z,8.35
2023-03-07T10:56:09.670Z,9.35
2023-03-07T10:58:37.272Z,9.90
2023-03-07T11:01:15.710Z,9.68
2023-03-07T11:03:53.489Z,9.52
2023-03-07T11:06:44.708Z,11.40
2023-03-07T11:09:17.815Z,8.13
2023-03-07T11:11:50.062Z,6.72
2023-03-07T11:14:18.921Z,10.13
2023-03-07T11:16:49.673Z,7.63
2023-03-07T11:19:32.479Z,5.68
2023-03-07T11:22:01.032Z,7.40
2023-03-07T11:24:30.727Z,8.00
2023-03-07T11:26:59.321Z,8.75
2023-03-07T11:29:28.307Z,8.40
2023-03-07T11:32:00.318Z,7.72
2023-03-07T11:34:32.745Z,10.30
2023-03-07T11:37:04.233Z,10.48
2023-03-07T11:42:03.965Z,9.48
2023-03-07T11:44:34.390Z,9.93
2023-03-07T11:47:13.427Z,6.15
2023-03-07T11:49:45.354Z,4.78
2023-03-07T11:52:32.987Z,6.60
2023-03-07T11:55:05.825Z,3.92
2023-03-07T11:57:46.389Z,6.80
2023-03-07T12:00:21.986Z,6.13
2023-03-07T12:02:55.434Z,3.88
2023-03-07T12:05:30.049Z,5.20
2023-03-07T12:08:06.664Z,5.07
2023-03-07T12:10:43.638Z,4.68
2023-03-07T12:13:17.255Z,7.85
2023-03-07T12:15:47.205Z,5.57
2023-03-07T12:18:32.887Z,6.93
2023-03-07T12:21:07.454Z,6.47
2023-03-07T12:23:39.077Z,6.63
2023-03-07T12:26:12.518Z,6.47
2023-03-07T12:28:44.214Z,8.48
2023-03-07T12:31:15.486Z,6.50
2023-03-07T12:36:12.854Z,4.88
2023-03-07T12:38:43.884Z,3.92
2023-03-07T12:41:20.444Z,3.67
2023-03-07T12:43:52.392Z,4.72
2023-03-07T12:46:24.336Z,4.65
2023-03-07T12:48:54.752Z,5.65
2023-03-07T12:51:26.669Z,4.15
2023-03-07T12:53:56.952Z,3.75
2023-03-07T12:56:27.507Z,4.72
2023-03-07T12:58:58.295Z,4.47
2023-03-07T13:01:28.178Z,4.93
2023-03-07T13:03:59.181Z,4.53
2023-03-07T13:06:27.464Z,2.65
2023-03-07T13:08:56.176Z,3.80
2023-03-07T13:11:25.026Z,3.00
2023-03-07T13:13:54.057Z,4.13
2023-03-07T13:16:42.627Z,3.85
2023-03-07T13:19:28.779Z,3.00
2023-03-07T13:21:56.384Z,3.55
2023-03-07T13:24:34.832Z,4.90
2023-03-07T13:27:02.409Z,3.80
2023-03-07T13:29:48.577Z,4.13
2023-03-07T13:32:31.002Z,2.78
2023-03-07T13:34:59.909Z,5.88
2023-03-07T13:37:48.722Z,4.43
2023-03-07T13:40:24.505Z,3.85
2023-03-07T13:42:52.216Z,6.03
2023-03-07T13:45:38.337Z,3.08
2023-03-07T13:48:06.314Z,4.82
2023-03-07T13:51:01.458Z,3.00
2023-03-07T13:53:34.648Z,3.10
2023-03-07T13:56:04.504Z,5.47
2023-03-07T13:58:34.757Z,4.78
2023-03-07T14:01:04.302Z,3.97
2023-03-07T14:03:33.610Z,5.18
2023-03-07T14:06:04.548Z,3.92
2023-03-07T14:08:34.861Z,2.65
2023-03-07T14:11:02.981Z,5.15
2023-03-07T14:13:45.456Z,3.80
2023-03-07T14:16:19.758Z,4.80
2023-03-07T14:18:52.017Z,5.18
2023-03-07T14:21:28.182Z,3.20
2023-03-07T14:24:16.806Z,3.10
2023-03-07T14:26:45.125Z,4.45
2023-03-07T14:29:15.444Z,3.30
2023-03-07T14:31:43.558Z,3.97
2023-03-07T14:34:17.709Z,5.82
2023-03-07T14:36:47.434Z,2.90
2023-03-07T14:39:15.663Z,2.85
2023-03-07T14:41:48.964Z,4.82
2023-03-07T14:44:27.781Z,4.55
2023-03-07T14:47:01.055Z,3.67
2023-03-07T14:49:33.162Z,6.55
2023-03-07T14:52:03.255Z,3.40
2023-03-07T14:54:32.827Z,3.20
2023-03-07T14:57:01.508Z,2.30
2023-03-07T14:59:29.674Z,3.40
2023-03-07T15:01:57.606Z,3.10
2023-03-07T15:04:26.008Z,2.40
2023-03-07T15:06:54.490Z,2.40
2023-03-07T15:09:23.739Z,3.90
2023-03-07T15:11:53.072Z,2.75
2023-03-07T15:14:22.639Z,3.00
2023-03-07T15:16:51.442Z,3.88
2023-03-07T15:19:22.011Z,1.90
2023-03-07T15:21:52.505Z,3.55
2023-03-07T15:24:22.757Z,2.25
2023-03-07T15:26:54.004Z,2.58
2023-03-07T15:29:23.209Z,2.30
2023-03-07T15:31:51.719Z,3.50
2023-03-07T15:34:23.519Z,3.88
2023-03-07T15:36:50.984Z,3.40
2023-03-07T15:39:27.724Z,2.85
2023-03-07T15:42:03.611Z,1.98
2023-03-07T15:44:31.530Z,3.03
2023-03-07T15:47:00.372Z,5.10
2023-03-07T15:49:31.695Z,2.22
2023-03-07T15:52:00.160Z,1.80
2023-03-07T15:54:33.359Z,5.72
2023-03-07T15:57:04.710Z,2.58
2023-03-07T15:59:33.822Z,2.67
2023-03-07T16:02:16.204Z,2.15
2023-03-07T16:04:43.660Z,4.80
2023-03-07T16:07:17.062Z,2.65
2023-03-07T16:09:44.584Z,2.10
2023-03-07T16:12:14.663Z,2.75
2023-03-07T16:14:42.450Z,2.95
2023-03-07T16:17:13.488Z,3.20
2023-03-07T16:19:40.950Z,3.47
2023-03-07T16:22:10.821Z,6.00
2023-03-07T16:24:38.332Z,3.25
2023-03-07T16:27:05.826Z,3.35
2023-03-07T16:29:34.710Z,3.35
2023-03-07T16:32:04.039Z,3.50
2023-03-07T16:34:31.581Z,4.13
2023-03-07T16:36:59.032Z,2.42
2023-03-07T16:39:26.568Z,3.88
2023-03-07T16:41:54.016Z,2.72
2023-03-07T16:44:23.526Z,2.15
2023-03-07T16:46:56.972Z,2.85
2023-03-07T16:49:24.471Z,5.60
2023-03-07T16:52:04.719Z,3.67
2023-03-07T16:54:32.937Z,3.50
2023-03-07T16:57:01.671Z,3.03
2023-03-07T16:59:35.518Z,2.85
2023-03-07T17:02:11.849Z,3.58
2023-03-07T17:04:39.395Z,3.53
2023-03-07T17:07:13.917Z,5.85
2023-03-07T17:09:41.541Z,5.95
2023-03-07T17:12:09.232Z,4.30
2023-03-07T17:14:37.148Z,3.47
2023-03-07T17:17:06.250Z,3.05
2023-03-07T17:19:34.153Z,3.72
2023-03-07T17:22:02.756Z,3.15
2023-03-07T17:24:30.887Z,5.30
2023-03-07T17:26:59.562Z,5.93
2023-03-07T17:29:29.291Z,3.17
2023-03-07T17:31:56.813Z,3.88
2023-03-07T17:34:26.879Z,4.30
2023-03-07T17:36:54.406Z,3.58
2023-03-07T17:39:22.607Z,4.80
2023-03-07T17:41:50.182Z,3.85
2023-03-07T17:44:18.156Z,4.30
2023-03-07T17:46:45.914Z,5.60
2023-03-07T17:49:13.612Z,6.57
2023-03-07T17:51:42.508Z,3.88
2023-03-07T17:54:10.203Z,4.70
2023-03-07T17:56:38.208Z,3.55
2023-03-07T17:59:05.751Z,4.55
2023-03-07T18:01:34.090Z,3.88
2023-03-07T18:04:01.856Z,3.85
2023-03-07T18:06:29.504Z,5.55
2023-03-07T18:08:58.481Z,5.88
2023-03-07T18:11:26.111Z,3.97
2023-03-07T18:13:53.605Z,3.78
2023-03-07T18:16:21.069Z,4.63
2023-03-07T18:18:58.944Z,4.18
2023-03-07T18:21:29.535Z,3.22
2023-03-07T18:23:59.574Z,4.65
2023-03-07T18:26:27.083Z,5.60
2023-03-07T18:28:54.686Z,5.72
2023-03-07T18:31:24.869Z,3.78
2023-03-07T18:33:53.550Z,4.60
2023-03-07T18:36:22.185Z,6.32
2023-03-07T18:38:50.055Z,6.68
2023-03-07T18:41:20.112Z,5.03
2023-03-07T18:43:47.882Z,4.45
2023-03-07T18:46:16.166Z,4.05
2023-03-07T18:48:43.896Z,3.78
2023-03-07T18:51:12.236Z,6.07
2023-03-07T18:53:40.469Z,6.93
2023-03-07T18:56:09.069Z,4.30
2023-03-07T18:58:38.233Z,5.00
2023-03-07T19:01:13.057Z,4.30
2023-03-07T19:03:40.630Z,5.80
2023-03-07T19:06:08.279Z,4.60
2023-03-07T19:08:36.093Z,3.88
2023-03-07T19:11:04.043Z,4.88
2023-03-07T19:13:31.492Z,5.50
2023-03-07T19:16:03.946Z,5.97
2023-03-07T19:18:31.473Z,4.28
2023-03-07T19:20:58.959Z,5.72
2023-03-07T19:23:26.475Z,7.63
2023-03-07T19:25:54.014Z,7.32
2023-03-07T19:28:21.529Z,4.57
2023-03-07T19:30:49.029Z,7.20
2023-03-07T19:33:17.846Z,7.85
2023-03-07T19:35:45.572Z,4.05
2023-03-07T19:38:13.081Z,4.45
2023-03-07T19:40:40.590Z,6.50
2023-03-07T19:43:08.143Z,4.75
2023-03-07T19:45:40.191Z,3.22
2023-03-07T19:48:07.813Z,5.43
2023-03-07T19:50:40.946Z,7.57
2023-03-07T19:53:08.454Z,5.80
2023-03-07T19:55:35.921Z,6.53
2023-03-07T19:58:03.546Z,6.65
2023-03-07T20:00:31.235Z,9.77
2023-03-07T20:03:00.043Z,7.20
2023-03-07T20:05:27.763Z,5.03
2023-03-07T20:07:57.080Z,8.13
2023-03-07T20:10:24.674Z,6.70
2023-03-07T20:12:53.172Z,6.93
2023-03-07T20:15:20.792Z,5.50
2023-03-07T20:17:48.606Z,7.30
2023-03-07T20:20:16.504Z,8.13
2023-03-07T20:22:44.157Z,7.68
2023-03-07T20:25:12.972Z,7.43
2023-03-07T20:27:41.086Z,7.30
2023-03-07T20:30:09.357Z,7.00
2023-03-07T20:32:36.886Z,9.02
2023-03-07T20:35:04.748Z,6.47
2023-03-07T20:37:33.805Z,6.25
2023-03-07T20:40:04.539Z,8.30
2023-03-07T20:42:34.243Z,8.57
2023-03-07T20:45:01.734Z,8.80
2023-03-07T20:47:29.317Z,9.02
2023-03-07T20:49:56.797Z,9.05
2023-03-07T20:52:25.233Z,8.50
2023-03-07T20:54:52.707Z,9.13
2023-03-07T20:57:20.340Z,9.13
2023-03-07T20:59:49.510Z,8.88
2023-03-07T21:02:17.047Z,6.00
2023-03-07T21:04:44.485Z,15.10
2023-03-07T21:07:12.131Z,7.45
2023-03-07T21:09:39.615Z,8.85
2023-03-07T21:12:08.509Z,8.77
2023-03-07T21:14:35.974Z,8.75
2023-03-07T21:17:04.902Z,8.30
2023-03-07T21:19:32.381Z,7.32
2023-03-07T21:22:00.228Z,6.85
2023-03-07T21:24:27.731Z,8.23
2023-03-07T21:26:55.486Z,8.48
2023-03-07T21:29:22.949Z,8.27
2023-03-07T21:31:50.573Z,9.05
2023-03-07T21:34:19.549Z,8.27
2023-03-07T21:36:47.913Z,6.88
2023-03-07T21:39:15.439Z,7.05
2023-03-07T21:41:42.961Z,8.10
2023-03-07T21:44:10.657Z,10.82
2023-03-07T21:46:38.211Z,8.40
2023-03-07T21:49:05.736Z,7.00
2023-03-07T21:51:34.881Z,7.93
2023-03-07T21:54:02.392Z,7.15
2023-03-07T21:56:29.945Z,6.40
2023-03-07T21:58:57.478Z,7.18
2023-03-07T22:01:25.907Z,6.55
2023-03-07T22:03:53.853Z,7.82
2023-03-07T22:06:21.902Z,8.15
2023-03-07T22:08:50.768Z,6.18
2023-03-07T22:11:18.303Z,5.00
2023-03-07T22:13:45.798Z,6.65
2023-03-07T22:16:14.215Z,6.38
2023-03-07T22:18:41.757Z,5.78
2023-03-07T22:21:09.826Z,5.95
2023-03-07T22:23:37.720Z,4.88
2023-03-07T22:26:08.158Z,7.97
2023-03-07T22:28:36.015Z,6.28
2023-03-07T22:31:04.489Z,5.15
2023-03-07T22:33:32.153Z,4.88
2023-03-07T22:36:00.346Z,5.28
2023-03-07T22:38:28.982Z,6.10
2023-03-07T22:41:01.038Z,9.02
2023-03-07T22:43:30.972Z,6.18
2023-03-07T22:45:58.536Z,5.18
2023-03-07T22:48:26.080Z,4.88
2023-03-07T22:50:53.764Z,4.80
2023-03-07T22:53:21.614Z,5.25
2023-03-07T22:55:49.097Z,6.55
2023-03-07T22:58:16.996Z,4.80
2023-03-07T23:00:46.096Z,4.45
2023-03-07T23:03:13.726Z,8.18
2023-03-07T23:05:41.312Z,4.28
2023-03-07T23:08:08.850Z,3.88
2023-03-07T23:10:36.559Z,4.25
2023-03-07T23:13:04.037Z,3.83
2023-03-07T23:15:31.617Z,4.97
2023-03-07T23:18:00.528Z,5.32
2023-03-07T23:20:30.145Z,4.03
2023-03-07T23:22:57.682Z,4.78
2023-03-07T23:25:25.207Z,4.07
2023-03-07T23:27:52.760Z,3.35
2023-03-07T23:30:21.721Z,6.22
2023-03-07T23:32:49.183Z,4.80
2023-03-07T23:35:18.106Z,4.53
2023-03-07T23:37:45.602Z,5.13
2023-03-07T23:40:13.592Z,3.65
2023-03-07T23:42:41.155Z,9.63
2023-03-07T23:45:09.182Z,3.97
2023-03-07T23:47:36.692Z,6.60
2023-03-07T23:50:04.391Z,6.82
2023-03-07T23:52:33.253Z,4.85
2023-03-07T23:55:00.765Z,9.05
2023-03-07T23:57:28.260Z,6.43
2023-03-07T23:59:55.774Z,5.60
